Time;durP1;ratioP1;P1;durP2;ratioP2;P2;SDS_P1;SDS_P2;PMS_P1;PMS_P2;Temp;Humidity;BMP_temperature;BMP_pressure;BME280_temperature;BME280_humidity;BME280_pressure;Samples;Min_cycle;Max_cycle;Signal;HPM_P1;HPM_P2
2024/01/23 00:00:09;;;;;;;19.85;4.20;;;;;;;;;;5059915;28;20439;-80
2024/01/23 00:02:36;;;;;;;19.50;4.13;;;;;;;;;;5077100;28;20439;-80
2024/01/23 00:05:02;;;;;;;19.15;3.95;;;;;;;;;;5059380;28;20400;-80
2024/01/23 00:07:28;;;;;;;19.58;3.60;;;;;;;;;;5051561;28;20777;-80
2024/01/23 00:09:54;;;;;;;18.88;3.55;;;;;;;;;;5041432;28;20454;-80
2024/01/23 00:12:20;;;;;;;16.77;3.47;;;;;;;;;;5085276;28;20395;-80
2024/01/23 00:14:46;;;;;;;17.63;3.67;;;;;;;;;;5058402;28;20398;-80
2024/01/23 00:17:12;;;;;;;18.48;4.03;;;;;;;;;;5073512;28;20408;-80
2024/01/23 00:19:38;;;;;;;22.35;3.80;;;;;;;;;;5076246;28;20440;-80
2024/01/23 00:22:04;;;;;;;23.40;4.03;;;;;;;;;;5076872;28;20396;-80
2024/01/23 00:24:31;;;;;;;18.55;3.80;;;;;;;;;;5092212;28;20412;-80
2024/01/23 00:26:57;;;;;;;16.83;3.70;;;;;;;;;;5043634;28;20768;-80
2024/01/23 00:29:23;;;;;;;19.00;4.20;;;;;;;;;;5057024;28;20418;-80
2024/01/23 00:31:49;;;;;;;17.77;3.72;;;;;;;;;;5040528;28;20402;-80
2024/01/23 00:34:15;;;;;;;21.33;4.20;;;;;;;;;;5075191;28;20397;-80
2024/01/23 00:36:42;;;;;;;19.75;4.20;;;;;;;;;;5074679;28;20512;-80
2024/01/23 00:39:08;;;;;;;19.83;3.78;;;;;;;;;;5093658;28;20408;-80
2024/01/23 00:41:34;;;;;;;14.18;4.18;;;;;;;;;;5056085;28;20422;-80
2024/01/23 00:44:00;;;;;;;21.13;4.45;;;;;;;;;;5067008;28;20444;-80
2024/01/23 00:46:27;;;;;;;19.90;4.07;;;;;;;;;;5059866;28;20479;-79
2024/01/23 00:48:53;;;;;;;23.92;4.32;;;;;;;;;;5060725;28;20421;-80
2024/01/23 00:51:19;;;;;;;19.10;4.07;;;;;;;;;;5082651;28;20396;-80
2024/01/23 00:53:45;;;;;;;23.53;4.40;;;;;;;;;;5054312;28;20405;-80
2024/01/23 00:56:12;;;;;;;19.52;3.75;;;;;;;;;;5068441;28;20417;-80
2024/01/23 00:58:38;;;;;;;20.02;4.60;;;;;;;;;;5078153;28;20420;-80
2024/01/23 01:01:04;;;;;;;16.30;3.80;;;;;;;;;;5072925;28;20402;-80
2024/01/23 01:03:31;;;;;;;22.67;4.28;;;;;;;;;;5071769;28;20398;-80
2024/01/23 01:05:57;;;;;;;17.27;3.95;;;;;;;;;;5081851;28;20752;-80
2024/01/23 01:08:23;;;;;;;18.58;3.92;;;;;;;;;;5097112;28;20515;-80
2024/01/23 01:10:49;;;;;;;16.77;3.80;;;;;;;;;;5080863;28;20388;-81
2024/01/23 01:13:16;;;;;;;22.38;5.40;;;;;;;;;;5062169;28;20451;-80
2024/01/23 01:15:42;;;;;;;21.95;4.50;;;;;;;;;;5064678;28;20858;-80
2024/01/23 01:18:08;;;;;;;22.52;4.25;;;;;;;;;;5061553;28;20508;-80
2024/01/23 01:20:34;;;;;;;18.55;4.10;;;;;;;;;;5079828;28;20949;-80
2024/01/23 01:23:00;;;;;;;18.77;4.70;;;;;;;;;;5095910;28;20896;-80
2024/01/23 01:25:26;;;;;;;21.53;4.10;;;;;;;;;;5064328;28;20392;-80
2024/01/23 01:27:52;;;;;;;21.48;3.97;;;;;;;;;;5095389;28;20424;-80
2024/01/23 01:30:19;;;;;;;19.95;3.63;;;;;;;;;;5080143;28;20410;-80
2024/01/23 01:32:45;;;;;;;20.70;3.97;;;;;;;;;;5096632;28;20495;-80
2024/01/23 01:35:11;;;;;;;21.05;4.10;;;;;;;;;;5076473;28;20422;-80
2024/01/23 01:37:37;;;;;;;16.42;3.70;;;;;;;;;;5080649;28;20741;-80
2024/01/23 01:40:03;;;;;;;20.75;4.00;;;;;;;;;;5078862;28;20407;-80
2024/01/23 01:42:29;;;;;;;20.08;4.47;;;;;;;;;;5080214;28;20406;-80
2024/01/23 01:44:55;;;;;;;19.88;4.40;;;;;;;;;;5062151;28;20423;-80
2024/01/23 01:47:22;;;;;;;20.85;4.55;;;;;;;;;;5095546;28;20403;-81
2024/01/23 01:49:48;;;;;;;17.67;3.75;;;;;;;;;;5096524;28;20749;-80
2024/01/23 01:52:15;;;;;;;21.65;4.20;;;;;;;;;;5095022;28;20922;-80
2024/01/23 01:54:42;;;;;;;21.05;4.28;;;;;;;;;;5079587;28;20392;-80
2024/01/23 01:57:08;;;;;;;23.15;4.55;;;;;;;;;;5096247;28;20400;-80
2024/01/23 01:59:34;;;;;;;20.27;4.13;;;;;;;;;;5079228;28;20403;-80
2024/01/23 02:02:02;;;;;;;20.65;4.10;;;;;;;;;;5079359;28;20396;-80
2024/01/23 02:04:28;;;;;;;20.63;4.65;;;;;;;;;;5063292;28;20744;-80
2024/01/23 02:06:54;;;;;;;17.77;4.90;;;;;;;;;;5092105;28;20400;-80
2024/01/23 02:09:20;;;;;;;17.27;4.65;;;;;;;;;;5077718;28;20419;-80
2024/01/23 02:12:00;;;;;;;20.27;4.55;;;;;;;;;;5078113;28;20745;-81
2024/01/23 02:14:27;;;;;;;18.20;4.35;;;;;;;;;;5087199;28;20719;-80
2024/01/23 02:16:53;;;;;;;25.55;4.82;;;;;;;;;;5072600;28;20407;-81
2024/01/23 02:19:19;;;;;;;22.43;5.07;;;;;;;;;;5078749;28;20794;-81
2024/01/23 02:21:45;;;;;;;23.52;4.68;;;;;;;;;;5078980;28;20430;-81
2024/01/23 02:24:11;;;;;;;21.40;4.30;;;;;;;;;;5076962;28;20461;-81
2024/01/23 02:26:37;;;;;;;24.77;4.40;;;;;;;;;;5063420;28;20484;-80
2024/01/23 02:29:04;;;;;;;23.55;4.80;;;;;;;;;;5078882;28;20416;-81
2024/01/23 02:31:30;;;;;;;22.17;4.55;;;;;;;;;;5095103;28;20428;-81
2024/01/23 02:33:56;;;;;;;23.67;5.47;;;;;;;;;;5058484;28;20394;-81
2024/01/23 02:36:22;;;;;;;23.90;4.28;;;;;;;;;;5071730;28;20432;-81
2024/01/23 02:38:48;;;;;;;22.08;4.40;;;;;;;;;;5076777;28;20407;-81
2024/01/23 02:41:14;;;;;;;23.73;4.80;;;;;;;;;;5060858;28;20401;-81
2024/01/23 02:43:40;;;;;;;17.77;4.22;;;;;;;;;;5089820;28;20942;-81
2024/01/23 02:46:06;;;;;;;24.70;4.45;;;;;;;;;;5061885;28;20880;-81
2024/01/23 02:48:32;;;;;;;26.52;4.70;;;;;;;;;;5076453;28;20932;-81
2024/01/23 02:50:58;;;;;;;23.38;5.00;;;;;;;;;;5076841;28;20404;-81
2024/01/23 02:53:24;;;;;;;19.70;4.88;;;;;;;;;;5049061;28;20500;-80
2024/01/23 02:55:50;;;;;;;20.70;5.22;;;;;;;;;;5062194;28;20400;-81
2024/01/23 02:58:18;;;;;;;23.93;5.03;;;;;;;;;;5078369;28;20406;-81
2024/01/23 03:00:44;;;;;;;19.80;4.72;;;;;;;;;;5060873;28;20423;-81
2024/01/23 03:03:10;;;;;;;26.38;5.78;;;;;;;;;;5096149;28;20408;-81
2024/01/23 03:05:37;;;;;;;23.33;5.07;;;;;;;;;;5062150;28;20396;-80
2024/01/23 03:08:04;;;;;;;25.45;5.32;;;;;;;;;;5093622;28;20450;-80
2024/01/23 03:10:30;;;;;;;22.42;5.10;;;;;;;;;;5087654;28;20406;-81
2024/01/23 03:12:57;;;;;;;19.50;5.00;;;;;;;;;;5058960;28;20402;-81
2024/01/23 03:15:23;;;;;;;23.05;4.63;;;;;;;;;;5048566;28;20420;-81
2024/01/23 03:17:49;;;;;;;25.40;4.82;;;;;;;;;;5076986;28;20526;-80
2024/01/23 03:20:15;;;;;;;27.63;5.03;;;;;;;;;;5069575;28;20402;-81
2024/01/23 03:22:41;;;;;;;23.85;4.75;;;;;;;;;;5074908;28;20402;-81
2024/01/23 03:25:08;;;;;;;23.58;4.43;;;;;;;;;;5076322;28;20466;-81
2024/01/23 03:27:34;;;;;;;26.45;5.22;;;;;;;;;;5067797;28;20420;-81
2024/01/23 03:30:00;;;;;;;28.35;5.30;;;;;;;;;;5094068;28;20748;-81
2024/01/23 03:32:26;;;;;;;25.37;5.20;;;;;;;;;;5061823;28;20470;-81
2024/01/23 03:34:52;;;;;;;26.00;6.30;;;;;;;;;;5077267;28;20515;-80
2024/01/23 03:37:18;;;;;;;25.38;6.10;;;;;;;;;;5073947;28;20396;-80
2024/01/23 03:39:44;;;;;;;24.35;5.43;;;;;;;;;;5092948;28;20439;-81
2024/01/23 03:42:10;;;;;;;26.60;5.75;;;;;;;;;;5077905;28;20397;-81
2024/01/23 03:44:36;;;;;;;28.20;6.03;;;;;;;;;;5087851;28;20410;-81
2024/01/23 03:47:02;;;;;;;26.85;5.60;;;;;;;;;;5059938;28;20491;-81
2024/01/23 03:49:28;;;;;;;26.02;5.78;;;;;;;;;;5076930;28;20908;-81
2024/01/23 03:51:55;;;;;;;25.30;4.78;;;;;;;;;;5075003;28;20416;-81
2024/01/23 03:54:21;;;;;;;22.73;5.13;;;;;;;;;;5056230;28;20890;-81
2024/01/23 03:56:47;;;;;;;23.55;4.85;;;;;;;;;;5094048;28;20397;-81
2024/01/23 03:59:13;;;;;;;26.40;5.50;;;;;;;;;;5076027;28;20404;-81
2024/01/23 04:01:39;;;;;;;24.33;4.93;;;;;;;;;;5093079;28;20462;-81
2024/01/23 04:04:05;;;;;;;23.92;5.57;;;;;;;;;;5076464;28;20977;-81
2024/01/23 04:06:31;;;;;;;25.08;4.75;;;;;;;;;;5094338;28;20400;-81
2024/01/23 04:08:57;;;;;;;25.87;5.33;;;;;;;;;;5068553;28;20443;-81
2024/01/23 04:11:24;;;;;;;29.15;5.35;;;;;;;;;;5052947;28;20529;-81
2024/01/23 04:13:50;;;;;;;28.92;4.95;;;;;;;;;;5076771;28;20388;-80
2024/01/23 04:16:16;;;;;;;27.33;4.70;;;;;;;;;;5089726;28;20403;-81
2024/01/23 04:18:42;;;;;;;23.67;5.15;;;;;;;;;;5082675;28;20933;-80
2024/01/23 04:21:08;;;;;;;26.17;5.35;;;;;;;;;;5093347;28;20404;-81
2024/01/23 04:23:34;;;;;;;19.50;4.63;;;;;;;;;;5075506;28;20486;-81
2024/01/23 04:26:00;;;;;;;27.75;5.90;;;;;;;;;;5072538;28;20496;-81
2024/01/23 04:28:26;;;;;;;25.52;5.60;;;;;;;;;;5077152;28;20423;-81
2024/01/23 04:30:53;;;;;;;28.73;6.68;;;;;;;;;;5068059;28;20392;-81
2024/01/23 04:33:19;;;;;;;23.42;4.68;;;;;;;;;;5059041;28;20396;-81
2024/01/23 04:35:45;;;;;;;29.30;5.40;;;;;;;;;;5103399;28;20765;-81
2024/01/23 04:38:11;;;;;;;26.95;5.85;;;;;;;;;;5093043;28;20404;-81
2024/01/23 04:40:37;;;;;;;24.45;5.55;;;;;;;;;;5090618;28;20755;-81
2024/01/23 04:43:04;;;;;;;30.58;5.82;;;;;;;;;;5073731;28;20454;-81
2024/01/23 04:45:30;;;;;;;25.48;5.70;;;;;;;;;;5093112;28;20435;-81
2024/01/23 04:47:56;;;;;;;27.90;5.97;;;;;;;;;;5064355;28;20433;-81
2024/01/23 04:50:23;;;;;;;26.67;5.73;;;;;;;;;;5085249;28;20814;-81
2024/01/23 04:52:52;;;;;;;28.90;6.15;;;;;;;;;;5085880;28;20424;-81
2024/01/23 04:55:18;;;;;;;26.75;6.20;;;;;;;;;;5093609;28;20399;-81
2024/01/23 04:57:44;;;;;;;31.90;5.80;;;;;;;;;;5093588;28;20475;-81
2024/01/23 05:00:10;;;;;;;26.13;6.23;;;;;;;;;;5091371;28;20399;-81
2024/01/23 05:02:37;;;;;;;29.20;6.50;;;;;;;;;;5071182;28;20435;-82
2024/01/23 05:05:04;;;;;;;28.48;5.70;;;;;;;;;;5058361;28;20483;-81
2024/01/23 05:07:30;;;;;;;28.77;5.93;;;;;;;;;;5073425;28;20402;-82
2024/01/23 05:09:56;;;;;;;26.08;5.28;;;;;;;;;;5064108;28;20445;-81
2024/01/23 05:12:22;;;;;;;28.20;6.15;;;;;;;;;;5074531;28;20483;-81
2024/01/23 05:14:48;;;;;;;29.73;6.32;;;;;;;;;;5093035;28;20404;-81
2024/01/23 05:17:14;;;;;;;28.13;6.18;;;;;;;;;;5088448;28;20483;-81
2024/01/23 05:19:40;;;;;;;30.80;5.73;;;;;;;;;;5057770;28;20400;-81
2024/01/23 05:22:06;;;;;;;31.25;6.63;;;;;;;;;;5092147;28;20741;-81
2024/01/23 05:24:32;;;;;;;37.10;7.07;;;;;;;;;;5077302;28;20424;-82
2024/01/23 05:26:58;;;;;;;26.52;6.13;;;;;;;;;;5091794;28;20427;-82
2024/01/23 05:29:24;;;;;;;27.15;5.65;;;;;;;;;;5088141;28;20821;-82
2024/01/23 05:31:50;;;;;;;24.08;6.47;;;;;;;;;;5093146;28;20404;-82
2024/01/23 05:34:16;;;;;;;35.20;6.22;;;;;;;;;;5092216;28;20411;-83
2024/01/23 05:36:43;;;;;;;26.88;5.82;;;;;;;;;;5091479;28;20437;-81
2024/01/23 05:39:09;;;;;;;28.77;6.53;;;;;;;;;;5074443;28;20525;-82
2024/01/23 05:41:35;;;;;;;31.40;6.00;;;;;;;;;;5058128;28;20427;-81
2024/01/23 05:44:01;;;;;;;26.58;6.20;;;;;;;;;;5111195;28;20407;-81
2024/01/23 05:46:27;;;;;;;24.88;6.45;;;;;;;;;;5090796;28;20934;-82
2024/01/23 05:48:53;;;;;;;32.05;7.03;;;;;;;;;;5060489;28;20468;-81
2024/01/23 05:51:19;;;;;;;30.05;6.10;;;;;;;;;;5094149;28;20738;-81
2024/01/23 05:53:46;;;;;;;26.30;5.70;;;;;;;;;;5092457;28;20455;-80
2024/01/23 05:56:12;;;;;;;30.75;6.68;;;;;;;;;;5080945;28;20796;-81
2024/01/23 05:58:38;;;;;;;34.45;7.22;;;;;;;;;;5080117;28;20418;-81
2024/01/23 06:01:04;;;;;;;33.58;6.88;;;;;;;;;;5078423;28;20398;-81
2024/01/23 06:03:30;;;;;;;31.30;7.03;;;;;;;;;;5083926;28;20396;-81
2024/01/23 06:05:56;;;;;;;35.22;6.18;;;;;;;;;;5095885;28;20401;-81
2024/01/23 06:08:22;;;;;;;30.75;6.15;;;;;;;;;;5059478;28;20418;-81
2024/01/23 06:10:48;;;;;;;29.13;6.57;;;;;;;;;;5089674;28;20946;-81
2024/01/23 06:13:14;;;;;;;29.00;7.32;;;;;;;;;;5092776;28;20397;-82
2024/01/23 06:15:41;;;;;;;34.00;7.32;;;;;;;;;;5096035;28;20793;-81
2024/01/23 06:18:07;;;;;;;28.42;7.00;;;;;;;;;;5114397;28;20451;-81
2024/01/23 06:20:34;;;;;;;30.60;6.63;;;;;;;;;;5079567;28;20415;-81
2024/01/23 06:23:00;;;;;;;33.88;7.80;;;;;;;;;;5074486;28;20461;-81
2024/01/23 06:25:26;;;;;;;33.47;6.70;;;;;;;;;;5090258;28;20399;-81
2024/01/23 06:27:52;;;;;;;37.08;7.28;;;;;;;;;;5093136;28;20435;-81
2024/01/23 06:30:18;;;;;;;34.43;7.57;;;;;;;;;;5091640;28;20868;-81
2024/01/23 06:32:44;;;;;;;40.55;8.40;;;;;;;;;;5113590;28;20943;-81
2024/01/23 06:35:10;;;;;;;33.05;6.20;;;;;;;;;;5111447;28;20493;-81
2024/01/23 06:37:36;;;;;;;28.40;6.60;;;;;;;;;;5074718;28;20430;-81
2024/01/23 06:40:03;;;;;;;35.83;6.78;;;;;;;;;;5073527;28;20426;-81
2024/01/23 06:42:29;;;;;;;36.88;7.75;;;;;;;;;;5088188;28;20431;-81
2024/01/23 06:44:55;;;;;;;34.10;6.80;;;;;;;;;;5073477;28;20416;-81
2024/01/23 06:47:21;;;;;;;36.55;6.85;;;;;;;;;;5061034;28;20429;-81
2024/01/23 06:49:47;;;;;;;31.55;6.32;;;;;;;;;;5078450;28;20491;-81
2024/01/23 06:52:13;;;;;;;36.83;7.28;;;;;;;;;;5074992;28;20400;-81
2024/01/23 06:54:39;;;;;;;32.05;6.15;;;;;;;;;;5075941;28;20402;-81
2024/01/23 06:57:06;;;;;;;27.43;6.77;;;;;;;;;;5104532;28;20396;-82
2024/01/23 06:59:32;;;;;;;32.50;6.70;;;;;;;;;;5095191;28;20752;-80
2024/01/23 07:01:58;;;;;;;34.70;6.95;;;;;;;;;;5107627;28;20982;-79
2024/01/23 07:04:24;;;;;;;32.13;7.28;;;;;;;;;;5073679;28;20462;-79
2024/01/23 07:06:50;;;;;;;30.73;6.32;;;;;;;;;;5090763;28;20420;-79
2024/01/23 07:09:16;;;;;;;34.50;6.20;;;;;;;;;;5102971;28;20926;-79
2024/01/23 07:11:43;;;;;;;34.33;6.72;;;;;;;;;;5112485;28;20404;-80
2024/01/23 07:14:09;;;;;;;34.80;7.07;;;;;;;;;;5088598;28;20720;-80
2024/01/23 07:16:35;;;;;;;32.15;6.82;;;;;;;;;;5088135;28;20553;-79
2024/01/23 07:19:01;;;;;;;34.53;7.40;;;;;;;;;;5110951;28;20397;-80
2024/01/23 07:21:27;;;;;;;36.50;7.90;;;;;;;;;;5109540;28;20415;-79
2024/01/23 07:23:53;;;;;;;36.00;6.90;;;;;;;;;;5072539;28;20411;-79
2024/01/23 07:26:19;;;;;;;37.85;6.80;;;;;;;;;;5108230;28;20431;-79
2024/01/23 07:28:46;;;;;;;34.92;7.10;;;;;;;;;;5110570;28;20895;-78
2024/01/23 07:31:12;;;;;;;34.55;6.80;;;;;;;;;;5111791;28;20403;-79
2024/01/23 07:33:39;;;;;;;39.03;6.50;;;;;;;;;;5075453;28;20400;-79
2024/01/23 07:36:05;;;;;;;36.07;7.97;;;;;;;;;;5105050;28;20507;-79
2024/01/23 07:38:31;;;;;;;34.00;7.13;;;;;;;;;;5091354;28;20420;-79
2024/01/23 07:40:57;;;;;;;36.78;7.45;;;;;;;;;;5091920;28;20496;-79
2024/01/23 07:43:26;;;;;;;39.60;7.90;;;;;;;;;;5109157;28;20390;-79
2024/01/23 07:45:55;;;;;;;34.92;6.47;;;;;;;;;;5110585;28;20479;-79
2024/01/23 07:48:22;;;;;;;33.13;7.60;;;;;;;;;;5047910;28;20511;-79
2024/01/23 07:50:48;;;;;;;38.50;7.35;;;;;;;;;;5047353;28;20423;-79
2024/01/23 07:53:14;;;;;;;39.07;8.23;;;;;;;;;;5063183;28;20425;-83
2024/01/23 07:55:41;;;;;;;41.20;8.30;;;;;;;;;;5068787;28;20420;-86
2024/01/23 07:58:08;;;;;;;38.40;7.50;;;;;;;;;;5069383;28;20846;-86
2024/01/23 08:00:34;;;;;;;38.38;7.35;;;;;;;;;;5048182;28;20425;-87
2024/01/23 08:03:01;;;;;;;38.50;8.07;;;;;;;;;;5045203;28;20403;-86
2024/01/23 08:05:29;;;;;;;39.47;7.78;;;;;;;;;;5069003;28;20434;-88
2024/01/23 08:07:55;;;;;;;32.03;6.88;;;;;;;;;;5067810;28;20428;-86
2024/01/23 08:10:24;;;;;;;42.17;7.65;;;;;;;;;;5063770;28;20429;-85
2024/01/23 08:12:50;;;;;;;36.95;7.20;;;;;;;;;;5051616;28;20777;-86
2024/01/23 08:15:17;;;;;;;43.40;7.37;;;;;;;;;;5051431;28;20824;-84
2024/01/23 08:17:44;;;;;;;39.15;6.80;;;;;;;;;;5068655;28;20446;-86
2024/01/23 08:20:10;;;;;;;31.77;6.65;;;;;;;;;;5070558;28;20896;-86
2024/01/23 08:22:36;;;;;;;31.77;7.40;;;;;;;;;;5054246;28;20414;-86
2024/01/23 08:25:02;;;;;;;39.60;7.55;;;;;;;;;;5054607;28;20403;-85
2024/01/23 08:27:28;;;;;;;39.08;7.20;;;;;;;;;;5053183;28;20407;-86
2024/01/23 08:29:55;;;;;;;40.00;7.13;;;;;;;;;;5053809;28;20576;-85
2024/01/23 08:32:21;;;;;;;34.90;7.13;;;;;;;;;;5066768;28;20412;-86
2024/01/23 08:34:47;;;;;;;43.90;7.43;;;;;;;;;;5066037;28;20395;-86
2024/01/23 08:37:14;;;;;;;36.88;6.95;;;;;;;;;;5036415;28;20911;-86
2024/01/23 08:39:42;;;;;;;35.90;7.25;;;;;;;;;;5052911;28;20420;-85
2024/01/23 08:42:08;;;;;;;33.88;6.80;;;;;;;;;;5066751;28;20489;-87
2024/01/23 08:44:36;;;;;;;36.57;7.00;;;;;;;;;;5068716;28;20407;-86
2024/01/23 08:47:03;;;;;;;34.00;7.38;;;;;;;;;;5069824;28;20411;-83
2024/01/23 08:49:29;;;;;;;32.30;6.95;;;;;;;;;;5088228;28;20509;-82
2024/01/23 08:51:55;;;;;;;35.70;6.68;;;;;;;;;;5070842;28;20402;-85
2024/01/23 08:54:21;;;;;;;41.00;7.65;;;;;;;;;;5059654;28;20394;-85
2024/01/23 08:56:49;;;;;;;35.22;6.90;;;;;;;;;;5090228;28;20400;-85
2024/01/23 08:59:15;;;;;;;37.33;6.90;;;;;;;;;;5068077;28;20404;-85
2024/01/23 09:01:41;;;;;;;36.53;7.40;;;;;;;;;;5066262;28;20411;-85
2024/01/23 09:04:07;;;;;;;34.22;7.20;;;;;;;;;;5057488;28;20404;-85
2024/01/23 09:06:34;;;;;;;32.78;7.38;;;;;;;;;;5065598;28;20812;-83
2024/01/23 09:09:00;;;;;;;38.42;8.27;;;;;;;;;;5071775;28;20927;-85
2024/01/23 09:11:26;;;;;;;40.03;7.87;;;;;;;;;;5069784;28;20394;-84
2024/01/23 09:13:52;;;;;;;35.60;7.10;;;;;;;;;;5057421;28;20405;-85
2024/01/23 09:16:18;;;;;;;37.38;7.05;;;;;;;;;;5061718;28;20481;-85
2024/01/23 09:18:48;;;;;;;31.38;6.95;;;;;;;;;;5071801;28;20731;-85
2024/01/23 09:21:14;;;;;;;39.95;7.13;;;;;;;;;;5068482;28;20934;-85
2024/01/23 09:23:41;;;;;;;28.23;5.88;;;;;;;;;;5063867;28;20418;-85
2024/01/23 09:26:07;;;;;;;34.42;7.07;;;;;;;;;;5064193;28;20508;-85
2024/01/23 09:28:33;;;;;;;29.20;7.38;;;;;;;;;;5079935;28;20423;-85
2024/01/23 09:30:59;;;;;;;36.58;6.93;;;;;;;;;;5051703;28;20449;-85
2024/01/23 09:33:25;;;;;;;31.60;6.80;;;;;;;;;;5071003;28;20419;-80
2024/01/23 09:35:51;;;;;;;38.30;7.55;;;;;;;;;;5087757;28;20449;-80
2024/01/23 09:38:17;;;;;;;38.22;6.97;;;;;;;;;;5070815;28;20433;-80
2024/01/23 09:40:46;;;;;;;31.23;6.45;;;;;;;;;;5083483;28;20426;-79
2024/01/23 09:43:12;;;;;;;36.13;7.45;;;;;;;;;;5082528;28;20414;-79
2024/01/23 09:45:40;;;;;;;31.35;6.95;;;;;;;;;;5086264;28;20484;-79
2024/01/23 09:48:07;;;;;;;32.85;7.05;;;;;;;;;;5100628;28;20845;-79
2024/01/23 09:50:34;;;;;;;35.83;6.60;;;;;;;;;;5096547;28;20403;-84
2024/01/23 09:53:00;;;;;;;32.47;7.40;;;;;;;;;;5087646;28;20454;-85
2024/01/23 09:55:26;;;;;;;38.65;7.63;;;;;;;;;;5076618;28;20405;-84
2024/01/23 09:57:52;;;;;;;37.70;7.15;;;;;;;;;;5080579;28;20404;-84
2024/01/23 10:00:18;;;;;;;31.25;6.32;;;;;;;;;;5094376;28;20400;-84
2024/01/23 10:02:45;;;;;;;34.63;7.22;;;;;;;;;;5090783;28;20480;-84
2024/01/23 10:05:17;;;;;;;35.55;7.07;;;;;;;;;;5076549;28;20805;-84
2024/01/23 10:07:44;;;;;;;43.47;7.00;;;;;;;;;;5093077;28;20403;-85
2024/01/23 10:10:13;;;;;;;34.47;6.85;;;;;;;;;;5076021;28;20409;-85
2024/01/23 10:12:41;;;;;;;31.15;6.68;;;;;;;;;;5074820;28;20453;-85
2024/01/23 10:15:10;;;;;;;36.88;7.47;;;;;;;;;;5094670;28;20403;-85
2024/01/23 10:17:36;;;;;;;33.70;6.50;;;;;;;;;;5096148;28;20422;-88
2024/01/23 10:20:02;;;;;;;33.33;6.43;;;;;;;;;;5078782;28;20396;-88
2024/01/23 10:22:28;;;;;;;32.10;6.63;;;;;;;;;;5096215;28;20485;-88
2024/01/23 10:24:54;;;;;;;29.37;6.33;;;;;;;;;;5075217;28;20471;-87
2024/01/23 10:27:20;;;;;;;25.80;6.25;;;;;;;;;;5078467;28;20463;-87
2024/01/23 10:29:46;;;;;;;32.00;6.03;;;;;;;;;;5064515;28;20814;-87
2024/01/23 10:32:12;;;;;;;35.05;7.72;;;;;;;;;;5065411;28;20415;-86
2024/01/23 10:34:38;;;;;;;32.75;6.68;;;;;;;;;;5074719;28;20449;-84
2024/01/23 10:37:05;;;;;;;29.48;6.15;;;;;;;;;;5060832;28;20931;-79
2024/01/23 10:39:31;;;;;;;33.22;5.53;;;;;;;;;;5090636;28;20800;-81
2024/01/23 10:41:58;;;;;;;34.70;6.85;;;;;;;;;;5089894;28;20856;-80
2024/01/23 10:44:27;;;;;;;27.30;6.80;;;;;;;;;;5074884;28;20407;-79
2024/01/23 10:46:55;;;;;;;30.15;6.60;;;;;;;;;;5094528;28;20415;-78
2024/01/23 10:49:22;;;;;;;31.40;6.22;;;;;;;;;;5104923;28;20526;-79
2024/01/23 10:51:51;;;;;;;38.58;6.72;;;;;;;;;;5073362;28;20774;-80
2024/01/23 10:54:31;;;;;;;38.35;7.22;;;;;;;;;;5072240;28;20398;-79
2024/01/23 10:56:59;;;;;;;32.97;6.10;;;;;;;;;;5092872;28;20420;-80
2024/01/23 10:59:29;;;;;;;32.03;6.90;;;;;;;;;;5088440;28;20687;-79
2024/01/23 11:02:03;;;;;;;30.85;6.97;;;;;;;;;;5072154;28;20971;-79
2024/01/23 11:04:29;;;;;;;37.33;6.50;;;;;;;;;;5109826;28;20399;-79
2024/01/23 11:06:59;;;;;;;31.87;6.03;;;;;;;;;;5093233;28;20392;-78
2024/01/23 11:09:41;;;;;;;30.75;5.88;;;;;;;;;;5111940;28;20424;-79
2024/01/23 11:12:27;;;;;;;39.90;6.05;;;;;;;;;;5107938;28;20427;-79
2024/01/23 11:14:58;;;;;;;28.13;5.97;;;;;;;;;;5088501;28;20413;-79
2024/01/23 11:17:24;;;;;;;24.47;5.80;;;;;;;;;;5092370;28;20420;-79
2024/01/23 11:20:04;;;;;;;25.63;5.22;;;;;;;;;;5077635;28;20408;-79
2024/01/23 11:22:30;;;;;;;29.42;5.47;;;;;;;;;;5087832;28;20400;-79
2024/01/23 11:24:56;;;;;;;30.50;5.88;;;;;;;;;;5091317;28;20585;-79
2024/01/23 11:27:23;;;;;;;31.63;6.15;;;;;;;;;;5090812;28;20496;-79
2024/01/23 11:29:50;;;;;;;26.77;6.23;;;;;;;;;;5070239;28;20966;-80
2024/01/23 11:32:19;;;;;;;25.42;5.65;;;;;;;;;;5109364;28;20526;-79
2024/01/23 11:34:45;;;;;;;30.30;5.60;;;;;;;;;;5091949;28;20428;-80
2024/01/23 11:37:46;;;;;;;30.00;6.37;;;;;;;;;;5090237;28;21164;-80
2024/01/23 11:40:31;;;;;;;31.10;6.38;;;;;;;;;;5030060;28;20819;-80
2024/01/23 11:42:59;;;;;;;30.10;6.50;;;;;;;;;;5104742;28;20421;-79
2024/01/23 11:45:27;;;;;;;29.98;6.55;;;;;;;;;;5110350;28;20396;-80
2024/01/23 11:47:57;;;;;;;30.55;6.07;;;;;;;;;;5062443;28;20520;-79
2024/01/23 11:50:23;;;;;;;30.53;5.47;;;;;;;;;;5066749;28;20387;-79
2024/01/23 11:52:54;;;;;;;29.47;6.33;;;;;;;;;;5068867;28;20504;-79
2024/01/23 11:55:21;;;;;;;27.77;5.40;;;;;;;;;;5070871;28;20387;-79
2024/01/23 11:57:48;;;;;;;26.98;5.55;;;;;;;;;;5065083;28;20424;-79
2024/01/23 12:00:14;;;;;;;31.60;5.65;;;;;;;;;;5052310;28;20404;-79
2024/01/23 12:02:41;;;;;;;30.65;5.90;;;;;;;;;;5056059;28;20405;-79
2024/01/23 12:05:07;;;;;;;29.08;5.35;;;;;;;;;;5063014;28;20455;-79
2024/01/23 12:07:37;;;;;;;24.58;5.47;;;;;;;;;;5051934;28;20800;-79
2024/01/23 12:10:23;;;;;;;23.27;5.28;;;;;;;;;;5061003;28;20416;-79
2024/01/23 12:12:56;;;;;;;25.40;5.70;;;;;;;;;;5069508;28;20400;-79
2024/01/23 12:15:22;;;;;;;30.55;5.93;;;;;;;;;;5066246;28;20814;-80
2024/01/23 12:17:50;;;;;;;25.38;6.00;;;;;;;;;;5050148;28;20414;-79
2024/01/23 12:20:16;;;;;;;28.42;5.95;;;;;;;;;;5075117;28;20394;-79
2024/01/23 12:22:42;;;;;;;24.67;5.07;;;;;;;;;;5066840;28;20941;-79
2024/01/23 12:25:10;;;;;;;29.15;5.35;;;;;;;;;;5079175;28;20396;-79
2024/01/23 12:27:36;;;;;;;28.80;6.00;;;;;;;;;;5070592;28;20414;-79
2024/01/23 12:30:03;;;;;;;24.92;6.35;;;;;;;;;;5036939;28;20516;-78
2024/01/23 12:32:29;;;;;;;24.63;5.18;;;;;;;;;;5050669;28;20408;-80
2024/01/23 12:34:56;;;;;;;30.63;5.65;;;;;;;;;;5068543;28;20803;-79
2024/01/23 12:37:29;;;;;;;25.92;5.97;;;;;;;;;;5053216;28;20458;-79
2024/01/23 12:39:55;;;;;;;26.38;5.50;;;;;;;;;;5069073;28;20763;-79
2024/01/23 12:42:24;;;;;;;30.98;6.32;;;;;;;;;;5067955;28;20460;-79
2024/01/23 12:44:50;;;;;;;21.75;5.07;;;;;;;;;;5069396;28;20426;-79
2024/01/23 12:47:17;;;;;;;22.55;5.25;;;;;;;;;;5037413;28;20408;-80
2024/01/23 12:49:45;;;;;;;28.25;5.38;;;;;;;;;;5090980;28;20426;-79
2024/01/23 12:52:15;;;;;;;38.72;6.07;;;;;;;;;;5088823;28;20822;-79
2024/01/23 12:54:41;;;;;;;26.67;5.53;;;;;;;;;;5092019;28;20539;-79
2024/01/23 12:57:07;;;;;;;28.30;5.50;;;;;;;;;;5109645;28;20401;-79
2024/01/23 12:59:33;;;;;;;28.20;5.30;;;;;;;;;;5075214;28;20404;-78
2024/01/23 13:02:00;;;;;;;28.05;6.70;;;;;;;;;;5075309;28;20407;-78
2024/01/23 13:04:26;;;;;;;27.30;5.50;;;;;;;;;;5107622;28;20475;-79
2024/01/23 13:06:52;;;;;;;31.13;6.10;;;;;;;;;;5068151;28;20393;-79
2024/01/23 13:09:18;;;;;;;31.83;6.00;;;;;;;;;;5092235;28;20507;-79
2024/01/23 13:11:44;;;;;;;27.08;5.25;;;;;;;;;;5109462;28;20392;-79
2024/01/23 13:14:10;;;;;;;27.10;5.30;;;;;;;;;;5110850;28;20781;-79
2024/01/23 13:16:36;;;;;;;26.05;5.05;;;;;;;;;;5105266;28;20414;-79
2024/01/23 13:19:02;;;;;;;24.20;5.33;;;;;;;;;;5092434;28;20565;-78
2024/01/23 13:21:28;;;;;;;25.23;5.63;;;;;;;;;;5107092;28;21031;-79
2024/01/23 13:23:55;;;;;;;27.57;5.57;;;;;;;;;;5111432;28;20388;-79
2024/01/23 13:26:21;;;;;;;24.77;5.18;;;;;;;;;;5109915;28;20396;-79
2024/01/23 13:28:47;;;;;;;25.20;5.28;;;;;;;;;;5109133;28;20565;-79
2024/01/23 13:31:15;;;;;;;27.30;5.45;;;;;;;;;;5090777;28;20408;-79
2024/01/23 13:33:41;;;;;;;27.13;5.73;;;;;;;;;;5070180;28;20984;-78
2024/01/23 13:36:08;;;;;;;29.73;6.07;;;;;;;;;;5089872;28;20408;-79
2024/01/23 13:38:34;;;;;;;29.45;5.20;;;;;;;;;;5073861;28;20923;-78
2024/01/23 13:41:00;;;;;;;25.23;4.87;;;;;;;;;;5073411;28;20411;-79
2024/01/23 13:43:28;;;;;;;24.38;5.05;;;;;;;;;;5075580;28;20408;-79
2024/01/23 13:45:54;;;;;;;24.83;5.23;;;;;;;;;;5070870;28;20472;-79
2024/01/23 13:48:20;;;;;;;28.63;6.03;;;;;;;;;;5091118;28;20802;-79
2024/01/23 13:50:46;;;;;;;24.73;5.73;;;;;;;;;;5104998;28;20485;-79
2024/01/23 13:53:12;;;;;;;32.22;6.18;;;;;;;;;;5090070;28;20392;-79
2024/01/23 13:55:39;;;;;;;28.00;5.50;;;;;;;;;;5090660;28;20405;-79
2024/01/23 13:58:06;;;;;;;23.45;5.18;;;;;;;;;;5102389;28;20763;-79
2024/01/23 14:00:34;;;;;;;26.38;5.10;;;;;;;;;;5090483;28;20445;-80
2024/01/23 14:03:00;;;;;;;26.83;4.87;;;;;;;;;;5078923;28;20798;-79
2024/01/23 14:05:29;;;;;;;24.75;5.45;;;;;;;;;;5080982;28;20411;-79
2024/01/23 14:07:55;;;;;;;24.85;5.47;;;;;;;;;;5087387;28;20430;-79
2024/01/23 14:10:22;;;;;;;23.77;4.82;;;;;;;;;;5102671;28;20398;-79
2024/01/23 14:12:49;;;;;;;24.27;5.32;;;;;;;;;;5101998;28;20423;-79
2024/01/23 14:15:16;;;;;;;25.33;5.55;;;;;;;;;;5095439;28;20404;-79
2024/01/23 14:17:43;;;;;;;25.95;5.38;;;;;;;;;;5086828;28;20406;-85
2024/01/23 14:20:11;;;;;;;20.58;4.95;;;;;;;;;;5078302;28;20420;-86
2024/01/23 14:22:40;;;;;;;25.60;5.30;;;;;;;;;;5077689;28;20408;-86
2024/01/23 14:25:10;;;;;;;25.35;5.22;;;;;;;;;;5091683;28;20447;-80
2024/01/23 14:27:39;;;;;;;26.05;5.22;;;;;;;;;;5085346;28;20911;-80